Time;durP1;ratioP1;P1;durP2;ratioP2;P2;SDS_P1;SDS_P2;PMS_P1;PMS_P2;Temp;Humidity;BMP_temperature;BMP_pressure;BME280_temperature;BME280_humidity;BME280_pressure;Samples;Min_cycle;Max_cycle;Signal;HPM_P1;HPM_P2
2022/05/18 00:02:26;;;;;;;5.80;2.58;;;;;;;17.41;57.21;92872.59;4984828;28;20054;-74
2022/05/18 00:04:52;;;;;;;7.20;2.75;;;;;;;17.40;57.20;92881.59;4986986;28;20026;-74
2022/05/18 00:07:17;;;;;;;8.15;2.85;;;;;;;17.38;56.92;92878.50;4977474;28;20080;-74
2022/05/18 00:09:43;;;;;;;7.40;2.97;;;;;;;17.37;57.11;92876.97;4993482;28;20403;-74
2022/05/18 00:12:10;;;;;;;5.57;3.00;;;;;;;17.37;56.49;92876.97;4992047;28;20033;-74
2022/05/18 00:14:37;;;;;;;7.15;2.97;;;;;;;17.37;56.63;92876.97;4992912;28;20033;-74
2022/05/18 00:17:04;;;;;;;6.45;3.00;;;;;;;17.34;56.74;92877.56;5010990;28;20037;-74
2022/05/18 00:19:32;;;;;;;6.18;2.70;;;;;;;17.31;56.94;92875.56;5010965;28;20105;-74
2022/05/18 00:21:58;;;;;;;9.32;3.08;;;;;;;17.28;57.27;92879.63;4993547;28;20038;-74
2022/05/18 00:24:24;;;;;;;6.80;2.72;;;;;;;17.25;57.19;92881.03;4999001;28;20046;-73
2022/05/18 00:26:49;;;;;;;5.45;2.80;;;;;;;17.24;57.15;92878.72;4957712;28;20045;-74
2022/05/18 00:29:16;;;;;;;8.18;2.92;;;;;;;17.20;57.16;92877.78;4957829;28;20108;-74
2022/05/18 00:31:42;;;;;;;8.93;2.92;;;;;;;17.19;57.55;92881.53;4973759;28;20062;-74
2022/05/18 00:34:08;;;;;;;6.95;3.05;;;;;;;17.14;57.81;92894.94;4998890;28;20064;-74
2022/05/18 00:36:35;;;;;;;8.85;2.88;;;;;;;17.11;57.77;92888.41;4997941;28;20037;-74
2022/05/18 00:39:01;;;;;;;9.43;3.13;;;;;;;17.09;57.83;92887.97;4973981;28;20255;-74
2022/05/18 00:41:27;;;;;;;12.80;3.05;;;;;;;17.08;57.85;92896.19;4973762;28;20034;-74
2022/05/18 00:43:55;;;;;;;7.88;2.88;;;;;;;17.05;57.91;92881.75;4992109;28;20026;-73
2022/05/18 00:46:21;;;;;;;6.53;3.00;;;;;;;17.02;57.87;92885.00;5010565;28;20049;-74
2022/05/18 00:48:48;;;;;;;7.38;2.80;;;;;;;16.99;58.08;92885.66;5010765;28;20030;-74
2022/05/18 00:51:27;;;;;;;8.63;3.28;;;;;;;16.97;58.16;92882.53;5010651;28;20410;-74
2022/05/18 00:53:59;;;;;;;8.77;3.35;;;;;;;16.96;58.43;92883.66;5010469;28;20503;-74
2022/05/18 00:56:52;;;;;;;10.20;3.30;;;;;;;16.94;58.76;92883.19;5008473;28;20048;-74
2022/05/18 00:59:27;;;;;;;8.48;3.55;;;;;;;16.90;59.62;92880.38;4968056;28;20046;-74
2022/05/18 01:01:55;;;;;;;9.05;3.10;;;;;;;16.87;59.55;92883.66;4994418;28;20142;-74
2022/05/18 01:04:23;;;;;;;8.00;3.47;;;;;;;16.82;59.78;92883.84;4994449;28;20030;-74
2022/05/18 01:07:14;;;;;;;8.18;3.70;;;;;;;16.70;60.36;92876.50;4993537;28;20073;-74
2022/05/18 01:09:43;;;;;;;8.15;3.80;;;;;;;16.73;60.29;92886.47;4976823;28;20121;-74
2022/05/18 01:12:15;;;;;;;6.53;3.28;;;;;;;16.71;60.46;92893.94;4976752;28;20049;-74
2022/05/18 01:14:44;;;;;;;9.63;3.30;;;;;;;16.72;60.63;92889.41;4976815;28;20035;-74
2022/05/18 01:17:15;;;;;;;9.18;3.35;;;;;;;16.70;60.62;92889.72;4991709;28;20488;-74
2022/05/18 01:19:44;;;;;;;5.93;3.33;;;;;;;16.69;60.77;92890.81;5013850;28;20488;-74
2022/05/18 01:22:17;;;;;;;7.38;3.33;;;;;;;16.66;60.67;92888.78;4996160;28;20046;-74
2022/05/18 01:24:50;;;;;;;6.97;3.50;;;;;;;16.67;60.70;92892.22;4996248;28;20495;-74
2022/05/18 01:27:16;;;;;;;7.57;3.33;;;;;;;16.63;61.14;92882.25;5009625;28;20038;-74
2022/05/18 01:29:42;;;;;;;7.20;3.53;;;;;;;16.62;61.10;92886.00;5012391;28;20046;-74
2022/05/18 01:32:13;;;;;;;10.38;3.70;;;;;;;16.60;61.04;92884.78;4979907;28;20404;-74
2022/05/18 01:34:42;;;;;;;9.30;3.85;;;;;;;16.62;61.29;92888.66;4979644;28;20073;-74
2022/05/18 01:37:13;;;;;;;6.65;3.20;;;;;;;16.62;61.53;92888.66;4992098;28;20540;-74
2022/05/18 01:39:56;;;;;;;8.40;3.63;;;;;;;16.62;61.27;92888.66;4994429;28;20041;-74
2022/05/18 01:42:33;;;;;;;8.98;3.30;;;;;;;16.61;60.95;92887.09;5013159;28;20385;-74
2022/05/18 01:44:59;;;;;;;8.60;3.78;;;;;;;16.61;60.89;92892.38;4993746;28;20038;-74
2022/05/18 01:47:30;;;;;;;13.73;3.30;;;;;;;16.63;60.61;92894.72;5011727;28;20036;-74
2022/05/18 01:49:56;;;;;;;11.53;3.70;;;;;;;16.64;60.43;92894.41;4995558;28;20133;-74
2022/05/18 01:52:21;;;;;;;7.45;3.22;;;;;;;16.66;60.42;92891.44;4995593;28;20120;-74
2022/05/18 01:54:47;;;;;;;10.23;3.08;;;;;;;16.65;60.09;92887.25;4975124;28;20044;-74
2022/05/18 01:57:14;;;;;;;7.82;3.22;;;;;;;16.65;60.08;92890.66;4997694;28;20258;-74
2022/05/18 01:59:40;;;;;;;8.23;3.50;;;;;;;16.65;59.58;92889.88;5012220;28;20038;-74
2022/05/18 02:02:10;;;;;;;7.07;3.30;;;;;;;16.64;59.94;92888.34;4993281;28;20041;-74
2022/05/18 02:04:36;;;;;;;7.32;3.28;;;;;;;16.63;59.96;92884.91;5008667;28;20104;-74
2022/05/18 02:07:03;;;;;;;6.60;3.33;;;;;;;16.59;60.54;92881.34;4994121;28;20042;-74
2022/05/18 02:09:30;;;;;;;12.30;3.38;;;;;;;16.57;60.63;92883.53;4975927;28;20042;-74
2022/05/18 02:11:56;;;;;;;7.40;3.10;;;;;;;16.57;60.29;92890.66;4976665;28;20045;-74
2022/05/18 02:14:22;;;;;;;9.95;3.10;;;;;;;16.57;60.24;92890.66;4975633;28;20477;-74
2022/05/18 02:16:48;;;;;;;5.97;2.85;;;;;;;16.56;59.83;92887.25;4975628;28;20030;-74
2022/05/18 02:19:14;;;;;;;10.52;3.10;;;;;;;16.58;59.37;92893.00;4976817;28;20046;-74
2022/05/18 02:21:40;;;;;;;9.23;3.22;;;;;;;16.57;60.19;92890.66;4975872;28;20038;-74
2022/05/18 02:24:06;;;;;;;6.63;3.00;;;;;;;16.52;60.57;92894.25;5009550;28;20472;-74
2022/05/18 02:26:32;;;;;;;5.90;3.00;;;;;;;16.48;60.81;92885.38;4978703;28;20077;-74
2022/05/18 02:28:57;;;;;;;7.05;2.97;;;;;;;16.54;59.47;92888.66;4993531;28;20484;-74
2022/05/18 02:31:23;;;;;;;6.65;3.00;;;;;;;16.55;58.98;92884.91;5012419;28;20018;-73
2022/05/18 02:33:49;;;;;;;6.28;3.10;;;;;;;16.54;59.77;92894.72;5009550;28;20048;-74
2022/05/18 02:36:15;;;;;;;8.73;3.15;;;;;;;16.53;59.74;92889.75;4962752;28;20037;-74
2022/05/18 02:38:42;;;;;;;6.03;2.80;;;;;;;16.45;60.10;92891.31;4990428;28;20058;-74
2022/05/18 02:41:08;;;;;;;8.00;2.97;;;;;;;16.40;60.14;92900.16;4991275;28;20030;-74
2022/05/18 02:43:40;;;;;;;9.30;3.22;;;;;;;16.36;60.39;92893.94;4988766;28;20124;-74
2022/05/18 02:46:08;;;;;;;5.95;3.00;;;;;;;16.35;60.36;92899.56;4992519;28;20049;-74
2022/05/18 02:48:34;;;;;;;9.63;3.33;;;;;;;16.31;60.70;92896.00;4991423;28;20045;-74
2022/05/18 02:50:59;;;;;;;9.20;3.10;;;;;;;16.27;60.69;92901.09;4991539;28;20073;-74
2022/05/18 02:53:26;;;;;;;6.28;3.22;;;;;;;16.25;60.30;92903.28;4991153;28;20488;-74
2022/05/18 02:56:06;;;;;;;6.25;2.83;;;;;;;16.29;59.46;92901.56;4990444;28;20030;-74
2022/05/18 02:58:42;;;;;;;6.88;3.22;;;;;;;16.31;59.81;92896.75;4992323;28;20038;-74
2022/05/18 03:01:13;;;;;;;6.10;2.70;;;;;;;16.32;59.74;92906.22;4989597;28;20030;-74
2022/05/18 03:03:39;;;;;;;7.95;3.20;;;;;;;16.31;60.09;92909.19;4990964;28;20053;-74
2022/05/18 03:06:08;;;;;;;7.03;3.28;;;;;;;16.27;60.27;92900.34;4990025;28;20034;-74
2022/05/18 03:08:36;;;;;;;11.57;3.35;;;;;;;16.23;60.41;92903.59;4990965;28;20491;-74
2022/05/18 03:11:02;;;;;;;8.48;3.08;;;;;;;16.23;60.20;92908.09;4990551;28;20066;-74
2022/05/18 03:13:28;;;;;;;9.10;2.95;;;;;;;16.20;60.38;92911.38;4992114;28;20030;-74
2022/05/18 03:15:54;;;;;;;9.18;3.17;;;;;;;16.17;60.56;92912.00;4990862;28;20129;-74
2022/05/18 03:18:20;;;;;;;5.93;3.08;;;;;;;16.14;60.50;92907.31;4990583;28;20504;-74
2022/05/18 03:23:41;;;;;;;7.45;2.90;;;;;;;16.11;61.03;92918.50;4944886;28;20055;-74
2022/05/18 03:26:12;;;;;;;8.07;3.20;;;;;;;16.06;60.83;92916.03;4978158;28;20046;-74
2022/05/18 03:28:39;;;;;;;8.10;2.73;;;;;;;16.05;60.86;92917.09;4991896;28;20041;-74
2022/05/18 03:31:06;;;;;;;7.95;2.92;;;;;;;16.02;60.91;92921.13;4972767;28;20047;-74
2022/05/18 03:33:32;;;;;;;7.65;2.90;;;;;;;15.98;60.99;92926.25;4955070;28;20424;-74
2022/05/18 03:35:58;;;;;;;12.30;3.22;;;;;;;15.95;61.42;92924.22;4988971;28;20038;-73
2022/05/18 03:38:24;;;;;;;7.15;3.28;;;;;;;15.92;61.65;92922.22;5006171;28;20060;-74
2022/05/18 03:40:50;;;;;;;8.25;3.80;;;;;;;15.89;61.70;92922.81;5011371;28;20566;-74
2022/05/18 03:43:16;;;;;;;11.90;3.15;;;;;;;15.87;61.80;92927.63;5009623;28;20349;-74
2022/05/18 03:45:42;;;;;;;8.40;2.88;;;;;;;15.83;61.79;92926.69;4977552;28;20066;-74
2022/05/18 03:48:11;;;;;;;6.95;2.95;;;;;;;15.80;61.27;92935.22;5009992;28;20037;-74
2022/05/18 03:50:39;;;;;;;5.63;2.75;;;;;;;15.80;61.58;92940.50;5011299;28;20056;-75
2022/05/18 03:53:06;;;;;;;6.07;3.15;;;;;;;15.77;61.66;92946.41;5011291;28;20038;-74
2022/05/18 03:55:31;;;;;;;7.97;2.70;;;;;;;15.76;61.30;92944.81;5012203;28;20484;-77
2022/05/18 03:57:57;;;;;;;6.18;3.13;;;;;;;15.76;61.89;92956.19;5009504;28;20042;-76
2022/05/18 04:00:23;;;;;;;7.75;3.08;;;;;;;15.75;62.00;92953.84;4973967;28;20034;-73
2022/05/18 04:02:49;;;;;;;7.85;3.20;;;;;;;15.75;62.05;92961.75;5006381;28;20038;-76
2022/05/18 04:05:17;;;;;;;8.88;3.40;;;;;;;15.76;62.22;92965.94;5009220;28;20033;-76
2022/05/18 04:07:43;;;;;;;5.68;2.90;;;;;;;15.77;62.67;92972.78;5029266;28;20120;-73
2022/05/18 04:10:10;;;;;;;9.50;3.20;;;;;;;15.76;63.00;92971.22;4981089;28;20515;-73
2022/05/18 04:12:36;;;;;;;7.75;3.30;;;;;;;15.75;62.94;92974.97;4976020;28;20064;-75
2022/05/18 04:15:03;;;;;;;8.02;3.20;;;;;;;15.76;63.15;92972.03;5010637;28;20054;-73
2022/05/18 04:17:29;;;;;;;7.88;3.30;;;;;;;15.76;63.52;92974.66;4991159;28;20071;-75
2022/05/18 04:19:55;;;;;;;11.43;3.38;;;;;;;15.77;63.51;92978.84;4989034;28;20037;-73
2022/05/18 04:22:23;;;;;;;6.20;3.28;;;;;;;15.80;63.57;92982.72;4989913;28;20045;-73
2022/05/18 04:24:50;;;;;;;8.02;3.25;;;;;;;15.81;63.27;92981.66;4992150;28;20049;-73
2022/05/18 04:27:16;;;;;;;8.40;3.13;;;;;;;15.84;63.59;92988.19;5008452;28;20033;-73
2022/05/18 04:29:42;;;;;;;7.90;3.40;;;;;;;15.84;63.78;92988.94;4989951;28;20033;-72
2022/05/18 04:32:09;;;;;;;10.07;3.15;;;;;;;15.88;63.80;92995.19;5009537;28;20440;-76
2022/05/18 04:34:35;;;;;;;8.00;3.08;;;;;;;15.91;63.46;92999.84;5007473;28;20091;-76
2022/05/18 04:37:01;;;;;;;8.00;2.97;;;;;;;15.96;63.39;92997.09;5004415;28;20050;-73
2022/05/18 04:39:27;;;;;;;7.63;3.00;;;;;;;16.01;63.90;93001.44;5007790;28;20077;-73
2022/05/18 04:41:53;;;;;;;9.30;3.75;;;;;;;16.05;63.60;93005.00;5001318;28;20073;-75
2022/05/18 04:44:19;;;;;;;12.52;3.42;;;;;;;16.09;63.51;93002.53;4988949;28;20339;-76
2022/05/18 04:46:44;;;;;;;7.65;3.17;;;;;;;16.11;63.62;93003.00;5005269;28;20065;-73
2022/05/18 04:49:11;;;;;;;11.20;3.08;;;;;;;16.15;63.43;93006.59;4987450;28;20391;-73
2022/05/18 04:51:37;;;;;;;8.18;3.20;;;;;;;16.16;64.50;93003.63;5011038;28;20040;-73
2022/05/18 04:54:04;;;;;;;6.90;3.47;;;;;;;16.20;64.24;93011.72;4992252;28;20137;-72
2022/05/18 04:56:29;;;;;;;9.00;3.20;;;;;;;16.25;64.31;93016.84;4989218;28;20029;-73
2022/05/18 04:58:56;;;;;;;7.10;3.40;;;;;;;16.26;65.15;93015.00;5004749;28;20092;-74
2022/05/18 05:01:25;;;;;;;12.35;4.55;;;;;;;16.27;66.98;93022.63;4972618;28;20034;-75
2022/05/18 05:03:51;;;;;;;8.25;4.20;;;;;;;16.30;66.71;93024.66;5006907;28;20037;-75
2022/05/18 05:06:17;;;;;;;19.20;6.97;;;;;;;16.32;66.62;93029.63;5011212;28;20565;-75
2022/05/18 05:08:43;;;;;;;10.32;4.60;;;;;;;16.39;66.02;93022.00;5000730;28;20043;-75
2022/05/18 05:11:08;;;;;;;10.73;3.85;;;;;;;16.45;65.44;93029.47;4993402;28;20105;-75
2022/05/18 05:13:35;;;;;;;10.10;3.72;;;;;;;16.53;65.44;93029.81;4999382;28;20433;-75
2022/05/18 05:16:05;;;;;;;8.45;3.67;;;;;;;16.62;65.03;93041.19;4993871;28;20152;-74
2022/05/18 05:18:32;;;;;;;9.18;3.63;;;;;;;16.72;65.00;93043.50;5013690;28;20044;-75
2022/05/18 05:20:58;;;;;;;7.75;3.70;;;;;;;16.82;64.42;93043.25;4989804;28;20044;-73
2022/05/18 05:23:24;;;;;;;7.57;3.40;;;;;;;16.94;64.09;93044.47;5007976;28;20069;-75
2022/05/18 05:25:54;;;;;;;6.38;3.35;;;;;;;17.08;63.89;93050.38;4992394;28;20042;-77
2022/05/18 05:28:20;;;;;;;6.57;3.25;;;;;;;17.22;63.78;93052.84;4997167;28;20171;-76
2022/05/18 05:30:47;;;;;;;8.40;3.45;;;;;;;17.31;63.71;93052.84;5007318;28;20108;-74
2022/05/18 05:33:13;;;;;;;9.40;3.90;;;;;;;17.42;63.44;93064.66;5008578;28;20034;-75
2022/05/18 05:35:42;;;;;;;7.60;3.55;;;;;;;17.52;63.77;93058.25;4987815;28;20072;-75
2022/05/18 05:38:09;;;;;;;9.77;3.60;;;;;;;17.60;63.47;93055.56;5008007;28;20046;-74
2022/05/18 05:40:36;;;;;;;6.68;3.80;;;;;;;17.72;63.63;93067.38;4949602;28;20039;-74
2022/05/18 05:43:06;;;;;;;9.48;4.05;;;;;;;17.85;63.49;93069.09;4993405;28;20046;-74
2022/05/18 05:45:32;;;;;;;8.15;3.65;;;;;;;18.03;63.71;93067.94;4976279;28;20049;-74
2022/05/18 05:47:58;;;;;;;11.38;3.70;;;;;;;18.24;65.64;93070.66;4994886;28;20022;-74
2022/05/18 05:50:25;;;;;;;11.15;4.18;;;;;;;18.46;65.28;93064.31;4993698;28;20088;-74
2022/05/18 05:52:52;;;;;;;10.00;3.78;;;;;;;19.14;62.13;93074.78;4993482;28;20511;-74
2022/05/18 05:55:18;;;;;;;9.18;3.72;;;;;;;20.02;59.82;93077.41;4976299;28;20527;-74
2022/05/18 05:57:43;;;;;;;11.25;3.83;;;;;;;20.86;57.42;93081.53;4977123;28;20065;-72
2022/05/18 06:00:09;;;;;;;6.38;3.70;;;;;;;21.64;54.24;93082.97;4993750;28;20582;-73
2022/05/18 06:02:38;;;;;;;11.82;3.70;;;;;;;22.38;51.96;93085.97;4976428;28;20022;-73
2022/05/18 06:05:04;;;;;;;11.60;4.10;;;;;;;23.03;50.39;93084.75;4993607;28;20528;-73
2022/05/18 06:07:30;;;;;;;8.25;3.83;;;;;;;23.54;48.57;93090.00;5014793;28;20037;-73
2022/05/18 06:09:57;;;;;;;8.30;4.20;;;;;;;24.03;46.79;93086.72;5012560;28;20041;-73
2022/05/18 06:12:26;;;;;;;9.93;3.92;;;;;;;24.44;43.83;93089.69;5012713;28;20030;-73
2022/05/18 06:14:52;;;;;;;9.68;4.57;;;;;;;24.50;45.11;93090.19;5012783;28;20038;-73
2022/05/18 06:17:17;;;;;;;11.85;4.28;;;;;;;24.47;44.58;93096.22;5012662;28;20064;-75
2022/05/18 06:19:43;;;;;;;11.73;4.55;;;;;;;24.48;45.86;93093.22;4993577;28;20030;-76
2022/05/18 06:22:09;;;;;;;14.80;5.50;;;;;;;24.55;44.78;93107.84;5012907;28;20441;-75
2022/05/18 06:24:36;;;;;;;9.00;4.63;;;;;;;24.82;43.75;93103.28;5012712;28;20484;-75
2022/05/18 06:27:02;;;;;;;10.75;5.10;;;;;;;24.51;44.55;93099.75;5012605;28;20593;-75
2022/05/18 06:29:28;;;;;;;20.08;5.93;;;;;;;24.33;46.17;93109.38;5010885;28;20107;-75
2022/05/18 06:31:54;;;;;;;15.38;5.90;;;;;;;24.16;47.06;93106.06;5012460;28;20116;-75
2022/05/18 06:34:23;;;;;;;26.35;6.90;;;;;;;23.60;49.42;93111.88;5012325;28;20113;-75
2022/05/18 06:36:50;;;;;;;47.65;7.85;;;;;;;23.20;48.77;93104.97;5012322;28;20411;-75
2022/05/18 06:39:18;;;;;;;14.30;5.18;;;;;;;22.56;46.63;93115.75;4994283;28;20045;-75
2022/05/18 06:41:45;;;;;;;14.52;5.47;;;;;;;22.58;48.42;93124.16;4999334;28;20030;-74
2022/05/18 06:44:11;;;;;;;96.22;13.25;;;;;;;22.57;46.82;93116.50;4975411;28;20079;-75
2022/05/18 06:46:38;;;;;;;12.52;4.88;;;;;;;22.51;46.41;93124.00;4975247;28;20125;-75
2022/05/18 06:49:09;;;;;;;31.58;6.15;;;;;;;22.49;46.80;93114.78;4992530;28;20147;-75
2022/05/18 06:51:39;;;;;;;26.95;6.15;;;;;;;22.50;47.51;93119.78;5000504;28;20033;-75
2022/05/18 06:54:05;;;;;;;46.55;8.00;;;;;;;22.60;46.32;93126.47;5011298;28;20491;-75
2022/05/18 06:56:35;;;;;;;156.80;15.77;;;;;;;22.29;49.48;93125.38;5011996;28;20085;-75
2022/05/18 06:59:02;;;;;;;35.15;6.32;;;;;;;22.31;50.75;93133.03;5012084;28;20041;-74
2022/05/18 07:01:29;;;;;;;22.60;5.72;;;;;;;22.19;48.96;93125.84;4992776;28;20033;-75
2022/05/18 07:03:55;;;;;;;24.02;6.10;;;;;;;22.29;49.86;93132.59;4994219;28;20479;-74
2022/05/18 07:06:23;;;;;;;15.38;5.78;;;;;;;22.11;48.91;93122.25;4994098;28;20381;-74
2022/05/18 07:08:55;;;;;;;17.02;6.18;;;;;;;21.98;50.70;93128.75;5011882;28;20037;-74
2022/05/18 07:11:22;;;;;;;;;;;;;;;22.23;49.22;93134.75;5007746;28;20085;-74
2022/05/18 07:13:51;;;;;;;16.65;6.30;;;;;;;22.00;51.14;93137.19;4994154;28;19918;-74
2022/05/18 07:16:18;;;;;;;14.35;6.75;;;;;;;22.03;48.80;93147.94;4992074;28;20495;-75
2022/05/18 07:18:45;;;;;;;17.15;5.85;;;;;;;22.09;47.94;93143.13;4974853;28;20043;-74
2022/05/18 07:21:11;;;;;;;12.48;5.45;;;;;;;22.19;49.08;93147.94;4974467;28;20435;-74
2022/05/18 07:23:37;;;;;;;19.05;5.95;;;;;;;22.52;48.50;93146.91;4997279;28;20029;-74
2022/05/18 07:26:03;;;;;;;17.38;6.95;;;;;;;22.71;48.47;93148.09;5011691;28;20042;-75
2022/05/18 07:28:29;;;;;;;15.77;6.25;;;;;;;22.72;49.11;93149.63;4994146;28;20307;-75
2022/05/18 07:30:55;;;;;;;17.48;6.40;;;;;;;22.79;48.20;93147.13;4993893;28;20091;-75
2022/05/18 07:33:22;;;;;;;18.05;7.40;;;;;;;22.85;48.86;93148.41;5011398;28;20034;-74
2022/05/18 07:35:49;;;;;;;19.50;6.70;;;;;;;22.74;51.31;93147.38;4992786;28;20034;-74
2022/05/18 07:38:15;;;;;;;21.38;7.43;;;;;;;22.54;52.08;93160.66;4991785;28;20112;-74
2022/05/18 07:40:42;;;;;;;18.05;7.15;;;;;;;22.42;53.08;93158.06;4990745;28;20041;-74
2022/05/18 07:43:07;;;;;;;20.00;7.70;;;;;;;22.24;53.18;93158.38;4991681;28;20038;-74
2022/05/18 07:45:35;;;;;;;21.17;8.45;;;;;;;21.85;53.46;93167.25;4975525;28;20039;-74
2022/05/18 07:48:00;;;;;;;16.55;8.32;;;;;;;21.54;54.64;93168.69;4991754;28;20054;-74
2022/05/18 07:50:26;;;;;;;16.60;9.07;;;;;;;21.56;55.36;93171.78;4974558;28;20481;-74
2022/05/18 07:52:58;;;;;;;18.10;7.90;;;;;;;21.85;55.59;93167.25;4991515;28;20101;-74
2022/05/18 07:55:26;;;;;;;21.23;8.15;;;;;;;22.12;55.84;93171.00;4992822;28;20392;-74
2022/05/18 07:57:53;;;;;;;21.23;9.75;;;;;;;22.19;54.59;93161.28;4991555;28;20046;-74
2022/05/18 08:00:19;;;;;;;18.35;9.05;;;;;;;22.54;53.23;93176.66;4991514;28;20126;-74
2022/05/18 08:02:45;;;;;;;22.25;9.18;;;;;;;22.51;53.96;93171.25;4991357;28;20126;-75
2022/05/18 08:05:11;;;;;;;13.18;8.27;;;;;;;22.49;54.50;93178.81;4978902;28;20029;-74
2022/05/18 08:07:36;;;;;;;18.58;8.65;;;;;;;22.81;53.87;93176.94;5015472;28;20088;-74
2022/05/18 08:15:34;;;;;;;23.40;9.10;;;;;;;23.07;52.63;93185.16;4997410;28;20049;-74
2022/05/18 08:17:59;;;;;;;17.75;8.75;;;;;;;23.05;53.98;93178.63;4980811;28;20034;-74
2022/05/18 08:20:25;;;;;;;22.13;8.38;;;;;;;22.48;54.74;93182.59;4995332;28;20038;-74
2022/05/18 08:22:52;;;;;;;20.20;10.27;;;;;;;22.41;55.13;93183.19;4977730;28;20042;-74
2022/05/18 08:25:18;;;;;;;22.02;10.30;;;;;;;22.39;54.17;93185.44;4977920;28;20037;-74
2022/05/18 08:27:47;;;;;;;24.73;10.30;;;;;;;22.24;55.50;93185.06;4997293;28;20104;-74
2022/05/18 08:30:16;;;;;;;24.15;11.77;;;;;;;21.97;56.30;93183.16;5013757;28;20499;-74
2022/05/18 08:32:42;;;;;;;19.33;9.38;;;;;;;22.13;58.17;93183.19;5014646;28;20098;-74
2022/05/18 08:35:09;;;;;;;21.50;10.93;;;;;;;22.10;56.86;93190.00;5014588;28;20468;-74
2022/05/18 08:37:40;;;;;;;29.25;12.90;;;;;;;22.32;56.61;93196.69;4996884;28;20064;-74
2022/05/18 08:40:11;;;;;;;35.17;14.82;;;;;;;22.12;54.68;93198.44;4997765;28;20053;-74
2022/05/18 08:42:37;;;;;;;30.65;11.73;;;;;;;22.08;56.81;93192.22;4980596;28;20037;-74
2022/05/18 08:45:03;;;;;;;23.67;8.70;;;;;;;22.17;56.92;93194.75;5014905;28;20431;-74
2022/05/18 08:47:46;;;;;;;26.95;12.25;;;;;;;22.20;57.13;93197.50;5014281;28;20466;-75
2022/05/18 08:50:15;;;;;;;29.52;13.00;;;;;;;21.94;57.92;93194.53;5012724;28;20038;-74
2022/05/18 08:53:02;;;;;;;29.15;14.07;;;;;;;22.23;56.40;93193.41;5014169;28;20113;-74
2022/05/18 08:56:01;;;;;;;28.42;13.50;;;;;;;22.36;56.96;93196.78;5003679;28;20049;-74
2022/05/18 08:58:29;;;;;;;30.83;12.45;;;;;;;22.35;56.77;93197.91;5010503;28;20065;-74
2022/05/18 09:01:02;;;;;;;36.70;16.13;;;;;;;22.28;55.92;93200.38;4961172;28;20108;-74
2022/05/18 09:03:36;;;;;;;24.50;11.70;;;;;;;22.42;56.50;93204.19;4977019;28;20042;-74
2022/05/18 09:06:01;;;;;;;36.13;14.95;;;;;;;22.29;56.89;93199.25;4977021;28;20030;-74
2022/05/18 09:08:34;;;;;;;26.35;12.98;;;;;;;22.41;56.47;93199.19;4997380;28;20396;-74
2022/05/18 09:11:13;;;;;;;31.40;13.88;;;;;;;22.53;56.15;93201.78;4996386;28;20056;-74
2022/05/18 09:13:39;;;;;;;24.88;13.35;;;;;;;22.71;57.50;93206.78;5014105;28;20087;-74
2022/05/18 09:16:25;;;;;;;34.92;15.13;;;;;;;22.99;56.49;93202.16;4996299;28;20034;-74
2022/05/18 09:19:09;;;;;;;41.10;16.08;;;;;;;23.32;55.46;93203.66;5012956;28;20160;-74
2022/05/18 09:21:35;;;;;;;31.73;15.98;;;;;;;23.11;54.01;93203.19;5001651;28;20033;-75
2022/05/18 09:24:15;;;;;;;30.33;15.38;;;;;;;22.88;54.78;93206.44;4996119;28;20037;-75
2022/05/18 09:26:41;;;;;;;31.58;14.30;;;;;;;22.93;54.81;93208.84;5013793;28;20034;-74
2022/05/18 09:29:27;;;;;;;35.22;16.25;;;;;;;22.85;54.43;93204.44;4996215;28;20044;-74
2022/05/18 09:32:14;;;;;;;32.72;16.17;;;;;;;22.60;54.18;93203.84;4995903;28;20072;-74
2022/05/18 09:35:12;;;;;;;29.33;15.32;;;;;;;23.01;53.78;93204.47;5013607;28;20037;-74
2022/05/18 09:37:56;;;;;;;34.88;15.13;;;;;;;23.14;53.67;93205.91;5013352;28;20042;-74
2022/05/18 09:40:30;;;;;;;35.35;16.17;;;;;;;23.26;52.90;93205.06;4991990;28;20041;-74
2022/05/18 09:43:22;;;;;;;22.63;11.05;;;;;;;23.28;52.69;93208.94;4976749;28;20030;-74
2022/05/18 09:45:49;;;;;;;22.83;11.70;;;;;;;23.21;53.12;93211.41;4993676;28;20034;-74
2022/05/18 09:48:23;;;;;;;48.25;17.08;;;;;;;23.41;52.81;93206.91;4993593;28;20145;-74
2022/05/18 09:50:50;;;;;;;35.80;16.63;;;;;;;23.25;53.88;93214.94;4978304;28;20065;-75
2022/05/18 09:53:17;;;;;;;33.25;14.50;;;;;;;23.19;53.29;93204.88;4995620;28;20139;-75
2022/05/18 09:55:48;;;;;;;31.20;14.52;;;;;;;23.27;52.89;93212.69;5013051;28;20061;-74
2022/05/18 09:58:26;;;;;;;30.05;14.98;;;;;;;23.42;52.71;93208.47;4979651;28;20030;-74
2022/05/18 10:07:27;;;;;;;38.40;16.95;;;;;;;23.23;53.28;93214.50;5013033;28;20034;-75
2022/05/18 10:07:27;;;;;;;24.08;13.15;;;;;;;23.35;52.69;93208.31;4930680;29;20031;-75
2022/05/18 10:10:20;;;;;;;29.17;14.13;;;;;;;23.27;53.55;93218.03;5015226;28;20037;-74
2022/05/18 10:13:00;;;;;;;32.17;13.15;;;;;;;23.37;53.31;93216.75;5012681;28;20038;-75
2022/05/18 10:15:45;;;;;;;36.58;17.45;;;;;;;23.28;52.71;93224.16;4993236;28;20395;-74
2022/05/18 10:18:11;;;;;;;32.65;13.52;;;;;;;23.56;53.53;93217.91;4975746;28;20092;-74
2022/05/18 10:20:39;;;;;;;33.65;14.65;;;;;;;23.44;52.55;93221.44;4975793;28;20027;-75
2022/05/18 10:23:27;;;;;;;38.65;15.98;;;;;;;23.55;51.00;93217.09;4994126;28;20038;-75
2022/05/18 10:25:53;;;;;;;31.42;15.77;;;;;;;23.52;52.03;93214.38;4955373;28;20078;-74
2022/05/18 10:28:23;;;;;;;40.15;15.35;;;;;;;23.79;51.86;93216.13;4958668;28;20503;-74
2022/05/18 10:31:05;;;;;;;27.13;12.68;;;;;;;23.76;50.31;93213.38;4975343;28;20046;-75
2022/05/18 10:33:36;;;;;;;25.23;12.60;;;;;;;23.70;52.89;93215.53;4993885;28;20030;-75
2022/05/18 10:36:16;;;;;;;33.42;17.00;;;;;;;23.56;53.89;93217.91;4975563;28;20038;-74
2022/05/18 10:39:08;;;;;;;37.95;16.23;;;;;;;23.65;54.21;93215.81;4972091;28;20412;-75
2022/05/18 10:41:43;;;;;;;35.25;16.02;;;;;;;23.72;53.45;93220.53;4969196;28;20133;-74
2022/05/18 10:44:18;;;;;;;35.97;16.48;;;;;;;23.80;53.69;93223.03;4980280;28;20457;-74
2022/05/18 10:46:47;;;;;;;36.65;16.77;;;;;;;24.22;52.30;93208.16;4991612;28;20041;-75
2022/05/18 10:49:34;;;;;;;37.30;16.13;;;;;;;24.09;52.53;93208.31;4992669;28;20506;-74
2022/05/18 10:52:20;;;;;;;29.75;16.77;;;;;;;23.83;53.50;93206.28;4975508;28;20035;-74
2022/05/18 10:54:58;;;;;;;35.75;17.58;;;;;;;23.73;53.05;93208.69;4991094;28;20038;-75
2022/05/18 10:57:35;;;;;;;36.92;16.52;;;;;;;23.61;51.78;93210.38;4973437;28;20470;-75
2022/05/18 11:00:17;;;;;;;42.05;19.17;;;;;;;23.77;52.09;93207.66;4971877;28;20038;-75
2022/05/18 11:03:06;;;;;;;42.45;17.48;;;;;;;24.04;51.11;93205.91;4973370;28;20043;-75
2022/05/18 11:05:39;;;;;;;43.72;18.80;;;;;;;24.10;50.45;93214.44;4971842;28;20035;-74
2022/05/18 11:08:11;;;;;;;30.13;16.80;;;;;;;24.20;49.01;93205.81;4971990;28;20038;-75
2022/05/18 11:10:41;;;;;;;;;;;;;;;23.94;49.54;93190.44;4973167;28;20519;-74
2022/05/18 11:13:25;;;;;;;48.58;17.90;;;;;;;23.95;50.67;93196.56;4971590;28;20379;-75
2022/05/18 11:16:01;;;;;;;43.65;18.63;;;;;;;24.09;51.57;93194.16;4971651;28;20093;-75
2022/05/18 11:18:40;;;;;;;42.30;18.00;;;;;;;24.29;51.01;93201.03;4972556;28;20493;-75
2022/05/18 11:21:27;;;;;;;44.25;19.25;;;;;;;24.13;51.62;93195.00;4971683;28;20086;-74
2022/05/18 11:24:19;;;;;;;36.80;18.63;;;;;;;24.30;50.72;93199.91;4971538;28;20042;-75
2022/05/18 11:27:20;;;;;;;52.22;19.25;;;;;;;24.01;52.35;93205.84;4967336;28;20248;-75
2022/05/18 11:29:57;;;;;;;36.25;17.08;;;;;;;24.08;50.54;93206.00;4952889;28;20047;-74
2022/05/18 11:32:44;;;;;;;53.85;23.30;;;;;;;23.72;52.76;93196.47;4972650;28;20035;-75
2022/05/18 11:35:34;;;;;;;41.63;17.38;;;;;;;23.87;51.18;93191.09;4972719;28;20042;-74
2022/05/18 11:38:30;;;;;;;47.15;17.48;;;;;;;23.73;52.77;93188.06;4993233;28;20051;-75
2022/05/18 11:41:24;;;;;;;46.38;21.30;;;;;;;23.30;54.44;93195.19;4972165;28;20046;-75
2022/05/18 11:43:57;;;;;;;49.58;19.95;;;;;;;23.44;53.73;93205.41;4972262;28;20027;-74
2022/05/18 11:46:39;;;;;;;50.53;17.52;;;;;;;23.54;53.65;93210.22;4972571;28;20045;-75
2022/05/18 11:49:22;;;;;;;;;;;;;;;23.73;53.70;93190.75;4972764;28;20057;-74
2022/05/18 11:52:32;;;;;;;48.38;17.25;;;;;;;23.46;51.95;93198.63;4972259;28;19918;-74
2022/05/18 11:55:34;;;;;;;52.33;21.25;;;;;;;23.57;51.99;93203.41;4935168;28;20062;-74